createdAt,value
2019-01-18T00:02:30.226Z,4.58
2019-01-18T00:04:58.303Z,4.59
2019-01-18T00:07:26.283Z,4.58
2019-01-18T00:09:54.268Z,4.56
2019-01-18T00:12:22.117Z,4.54
2019-01-18T00:14:50.086Z,4.53
2019-01-18T00:17:18.055Z,4.53
2019-01-18T00:19:46.089Z,4.53
2019-01-18T00:22:14.059Z,4.54
2019-01-18T00:24:42.047Z,4.52
2019-01-18T00:27:10.088Z,4.49
2019-01-18T00:29:38.085Z,4.48
2019-01-18T00:32:06.106Z,4.45
2019-01-18T00:34:34.100Z,4.44
2019-01-18T00:37:02.110Z,4.45
2019-01-18T00:39:30.101Z,4.47
2019-01-18T00:41:58.095Z,4.47
2019-01-18T00:44:26.096Z,4.49
2019-01-18T00:46:54.397Z,4.50
2019-01-18T00:49:22.413Z,4.51
2019-01-18T00:51:51.624Z,4.53
2019-01-18T00:54:19.614Z,4.54
2019-01-18T00:56:47.858Z,4.55
2019-01-18T00:59:16.211Z,4.55
2019-01-18T01:01:44.294Z,4.54
2019-01-18T01:04:12.305Z,4.55
2019-01-18T01:06:40.302Z,4.55
2019-01-18T01:09:08.264Z,4.55
2019-01-18T01:11:36.228Z,4.56
2019-01-18T01:14:04.406Z,4.56
2019-01-18T01:16:32.379Z,4.55
2019-01-18T01:19:00.606Z,4.55
2019-01-18T01:21:28.605Z,4.55
2019-01-18T01:23:56.940Z,4.54
2019-01-18T01:26:24.911Z,4.54
2019-01-18T01:28:52.933Z,4.50
2019-01-18T01:31:20.899Z,4.48
2019-01-18T01:33:49.219Z,4.47
2019-01-18T01:36:17.260Z,4.48
2019-01-18T01:38:45.278Z,4.48
2019-01-18T01:41:13.266Z,4.50
2019-01-18T01:43:41.280Z,4.51
2019-01-18T01:46:09.285Z,4.51
2019-01-18T01:48:39.175Z,4.49
2019-01-18T01:51:07.219Z,4.46
2019-01-18T01:53:35.240Z,4.44
2019-01-18T01:56:03.281Z,4.41
2019-01-18T01:58:31.694Z,4.38
2019-01-18T02:00:59.696Z,4.41
2019-01-18T02:03:27.685Z,4.42
2019-01-18T02:05:55.686Z,4.45
2019-01-18T02:08:23.671Z,4.47
2019-01-18T02:11:00.601Z,4.49
2019-01-18T02:13:30.579Z,4.50
2019-01-18T02:15:58.595Z,4.51
2019-01-18T02:18:29.709Z,4.53
2019-01-18T02:20:57.721Z,4.53
2019-01-18T02:23:25.819Z,4.53
2019-01-18T02:25:53.815Z,4.52
2019-01-18T02:28:21.819Z,4.53
2019-01-18T02:30:49.906Z,4.54
2019-01-18T02:33:17.892Z,4.55
2019-01-18T02:35:45.945Z,4.55
2019-01-18T02:38:13.944Z,4.55
2019-01-18T02:40:42.263Z,4.55
2019-01-18T02:43:10.296Z,4.53
2019-01-18T02:45:38.303Z,4.51
2019-01-18T02:48:06.296Z,4.51
2019-01-18T02:50:34.346Z,4.50
2019-01-18T02:53:03.833Z,4.48
2019-01-18T02:55:32.602Z,4.48
2019-01-18T02:58:00.614Z,4.48
2019-01-18T03:00:28.631Z,4.46
2019-01-18T03:02:56.927Z,4.45
2019-01-18T03:05:26.386Z,4.43
2019-01-18T03:07:54.806Z,4.44
2019-01-18T03:10:26.542Z,4.44
2019-01-18T03:12:54.548Z,4.43
2019-01-18T03:15:22.675Z,4.41
2019-01-18T03:17:50.652Z,4.41
2019-01-18T03:20:19.176Z,4.42
2019-01-18T03:22:47.184Z,4.44
2019-01-18T03:25:20.011Z,4.44
2019-01-18T03:27:48.012Z,4.41
2019-01-18T03:30:18.553Z,4.42
2019-01-18T03:32:46.562Z,4.43
2019-01-18T03:35:16.869Z,4.46
2019-01-18T03:37:46.042Z,4.48
2019-01-18T03:40:15.366Z,4.49
2019-01-18T03:42:43.667Z,4.53
2019-01-18T03:45:14.751Z,4.56
2019-01-18T03:47:42.751Z,4.60
2019-01-18T03:50:15.526Z,4.62
2019-01-18T03:52:43.884Z,4.64
2019-01-18T03:55:12.427Z,4.65
2019-01-18T03:57:40.432Z,4.65
2019-01-18T04:00:13.320Z,4.65
2019-01-18T04:02:41.422Z,4.66
2019-01-18T04:05:09.954Z,4.67
2019-01-18T04:07:37.965Z,4.67
2019-01-18T04:10:08.796Z,4.67
2019-01-18T04:12:36.845Z,4.68
2019-01-18T04:15:08.955Z,4.70
2019-01-18T04:17:37.327Z,4.70
2019-01-18T04:20:06.909Z,4.71
2019-01-18T04:22:34.953Z,4.73
2019-01-18T04:25:08.266Z,4.74
2019-01-18T04:27:36.311Z,4.74
2019-01-18T04:30:07.806Z,4.76
2019-01-18T04:32:35.841Z,4.76
2019-01-18T04:35:07.671Z,4.75
2019-01-18T04:37:35.777Z,4.76
2019-01-18T04:40:07.951Z,4.76
2019-01-18T04:42:36.033Z,4.78
2019-01-18T04:45:06.345Z,4.77
2019-01-18T04:47:34.452Z,4.77
2019-01-18T04:50:03.943Z,4.76
2019-01-18T04:52:31.997Z,4.77
2019-01-18T04:55:00.082Z,4.77
2019-01-18T04:57:28.255Z,4.77
2019-01-18T04:59:56.317Z,4.76
2019-01-18T05:02:24.361Z,4.76
2019-01-18T05:04:52.439Z,4.78
2019-01-18T05:07:20.537Z,4.80
2019-01-18T05:09:48.784Z,4.80
2019-01-18T05:12:17.987Z,4.81
2019-01-18T05:14:45.975Z,4.79
2019-01-18T05:17:13.987Z,4.78
2019-01-18T05:19:41.990Z,4.77
2019-01-18T05:22:10.080Z,4.80
2019-01-18T05:24:38.087Z,4.81
2019-01-18T05:27:06.807Z,4.81
2019-01-18T05:29:34.895Z,4.82
2019-01-18T05:32:02.959Z,4.82
2019-01-18T05:34:31.072Z,4.83
2019-01-18T05:36:59.157Z,4.84
2019-01-18T05:39:27.170Z,4.84
2019-01-18T05:41:55.563Z,4.82
2019-01-18T05:44:23.668Z,4.81
2019-01-18T05:46:51.821Z,4.80
2019-01-18T05:49:19.819Z,4.80
2019-01-18T05:51:47.892Z,4.80
2019-01-18T05:54:15.939Z,4.79
2019-01-18T05:56:43.944Z,4.77
2019-01-18T05:59:12.477Z,4.76
2019-01-18T06:01:40.807Z,4.75
2019-01-18T06:04:10.232Z,4.72
2019-01-18T06:06:38.598Z,4.72
2019-01-18T06:09:08.424Z,4.72
2019-01-18T06:11:36.473Z,4.71
2019-01-18T06:14:04.525Z,4.69
2019-01-18T06:16:32.524Z,4.66
2019-01-18T06:19:02.397Z,4.64
2019-01-18T06:21:30.805Z,4.65
2019-01-18T06:23:59.246Z,4.65
2019-01-18T06:26:27.306Z,4.64
2019-01-18T06:28:55.487Z,4.64
2019-01-18T06:31:23.661Z,4.65
2019-01-18T06:33:51.979Z,4.65
2019-01-18T06:36:21.249Z,4.64
2019-01-18T06:38:49.349Z,4.61
2019-01-18T06:41:37.340Z,4.59
2019-01-18T06:44:05.432Z,4.58
2019-01-18T06:46:33.612Z,4.60
2019-01-18T06:49:02.109Z,4.63
2019-01-18T06:51:30.163Z,4.66
2019-01-18T06:53:58.274Z,4.68
2019-01-18T06:56:28.071Z,4.71
2019-01-18T06:58:56.147Z,4.73
2019-01-18T07:01:25.216Z,4.74
2019-01-18T07:03:53.638Z,4.77
2019-01-18T07:06:21.696Z,4.78
2019-01-18T07:08:50.288Z,4.80
2019-01-18T07:11:18.577Z,4.81
2019-01-18T07:13:47.229Z,4.81
2019-01-18T07:16:16.616Z,4.80
2019-01-18T07:18:44.797Z,4.80
2019-01-18T07:21:12.885Z,4.82
2019-01-18T07:23:41.087Z,4.82
2019-01-18T07:26:09.236Z,4.83
2019-01-18T07:28:38.224Z,4.85
2019-01-18T07:31:07.737Z,4.85
2019-01-18T07:33:35.784Z,4.85
2019-01-18T07:36:03.895Z,4.86
2019-01-18T07:38:32.001Z,4.86
2019-01-18T07:41:01.227Z,4.88
2019-01-18T07:43:29.252Z,4.88
2019-01-18T07:45:57.334Z,4.87
2019-01-18T07:48:25.427Z,4.85
2019-01-18T07:50:53.483Z,4.83
2019-01-18T07:55:49.908Z,4.80
2019-01-18T07:58:17.972Z,4.81
2019-01-18T08:00:46.035Z,4.80
2019-01-18T08:03:14.101Z,4.76
2019-01-18T08:05:44.103Z,4.74
2019-01-18T08:08:12.203Z,4.74
2019-01-18T08:10:40.253Z,4.74
2019-01-18T08:13:09.746Z,4.74
2019-01-18T08:15:37.795Z,4.76
2019-01-18T08:18:05.924Z,4.76
2019-01-18T08:20:33.981Z,4.79
2019-01-18T08:23:02.330Z,4.82
2019-01-18T08:25:30.407Z,4.85
2019-01-18T08:27:59.031Z,4.87
2019-01-18T08:30:29.374Z,4.89
2019-01-18T08:32:58.471Z,4.92
2019-01-18T08:35:27.865Z,4.93
2019-01-18T08:37:55.942Z,4.97
2019-01-18T08:40:38.770Z,5.00
2019-01-18T08:43:10.938Z,5.03
2019-01-18T08:45:49.030Z,5.08
2019-01-18T08:48:18.348Z,5.15
2019-01-18T08:50:46.500Z,5.20
2019-01-18T08:53:14.694Z,5.24
2019-01-18T08:55:42.775Z,5.28
2019-01-18T08:58:12.611Z,5.33
2019-01-18T09:00:40.888Z,5.37
2019-01-18T09:03:10.458Z,5.40
2019-01-18T09:05:38.560Z,5.39
2019-01-18T09:08:06.632Z,5.41
2019-01-18T09:10:34.991Z,5.45
2019-01-18T09:13:03.139Z,5.47
2019-01-18T09:15:31.217Z,5.50
2019-01-18T09:17:59.269Z,5.52
2019-01-18T09:20:27.990Z,5.56
2019-01-18T09:22:57.597Z,5.59
2019-01-18T09:25:25.697Z,5.63
2019-01-18T09:27:54.187Z,5.62
2019-01-18T09:30:25.801Z,5.67
2019-01-18T09:32:54.883Z,5.68
2019-01-18T09:35:24.041Z,5.66
2019-01-18T09:37:52.558Z,5.61
2019-01-18T09:40:26.951Z,5.59
2019-01-18T09:42:55.021Z,5.59
2019-01-18T09:45:24.334Z,5.59
2019-01-18T09:47:52.402Z,5.58
2019-01-18T09:50:23.652Z,5.57
2019-01-18T09:52:52.050Z,5.61
2019-01-18T09:55:21.817Z,5.64
2019-01-18T09:57:49.998Z,5.71
2019-01-18T10:00:24.720Z,5.79
2019-01-18T10:02:52.842Z,5.88
2019-01-18T10:05:21.731Z,5.97
2019-01-18T10:07:49.809Z,6.09
2019-01-18T10:10:18.961Z,6.23
2019-01-18T10:12:47.710Z,6.41
2019-01-18T10:15:22.475Z,6.57
2019-01-18T10:17:50.880Z,6.75
2019-01-18T10:20:19.021Z,6.98
2019-01-18T10:22:47.586Z,7.28
2019-01-18T10:25:15.907Z,7.64
2019-01-18T10:27:44.021Z,8.12
2019-01-18T10:30:16.855Z,8.54
2019-01-18T10:32:45.726Z,8.92
2019-01-18T10:35:15.822Z,9.24
2019-01-18T10:37:45.962Z,9.56
2019-01-18T10:40:14.786Z,9.94
2019-01-18T10:42:44.448Z,10.39
2019-01-18T10:45:13.557Z,10.86
2019-01-18T10:47:41.636Z,11.29
2019-01-18T10:50:16.004Z,11.74
2019-01-18T10:52:44.088Z,12.05
2019-01-18T10:55:12.275Z,12.26
2019-01-18T10:57:40.579Z,12.41
2019-01-18T11:00:13.695Z,12.53
2019-01-18T11:02:41.696Z,12.64
2019-01-18T11:05:10.538Z,12.70
2019-01-18T11:07:38.570Z,12.69
2019-01-18T11:10:08.688Z,12.57
2019-01-18T11:12:36.717Z,12.42
2019-01-18T11:15:08.954Z,12.32
2019-01-18T11:17:36.992Z,12.25
2019-01-18T11:20:11.522Z,12.18
2019-01-18T11:22:39.494Z,12.02
2019-01-18T11:25:09.005Z,11.59
2019-01-18T11:27:37.028Z,11.40
2019-01-18T11:30:09.441Z,11.20
2019-01-18T11:32:37.432Z,11.03
2019-01-18T11:35:05.708Z,10.89
2019-01-18T11:37:33.705Z,10.83
2019-01-18T11:40:01.847Z,10.77
2019-01-18T11:42:30.127Z,10.73
2019-01-18T11:44:58.140Z,10.68
2019-01-18T11:47:26.144Z,10.59
2019-01-18T11:49:54.320Z,10.44
2019-01-18T11:52:22.336Z,10.25
2019-01-18T11:54:50.505Z,10.06
2019-01-18T11:57:18.550Z,9.96
2019-01-18T11:59:49.080Z,9.88
2019-01-18T12:02:22.022Z,9.76
2019-01-18T12:04:47.101Z,9.61
2019-01-18T12:07:15.120Z,9.56
2019-01-18T12:09:43.209Z,9.58
2019-01-18T12:12:11.246Z,9.57
2019-01-18T12:14:39.232Z,9.57
2019-01-18T12:17:08.258Z,9.51
2019-01-18T12:19:37.290Z,9.48
2019-01-18T12:22:05.295Z,9.45
2019-01-18T12:24:33.269Z,9.43
2019-01-18T12:27:01.302Z,9.39
2019-01-18T12:29:29.279Z,9.36
2019-01-18T12:31:57.451Z,9.31
2019-01-18T12:34:25.425Z,9.29
2019-01-18T12:36:58.853Z,9.29
2019-01-18T12:39:23.382Z,9.30
2019-01-18T12:41:51.382Z,9.37
2019-01-18T12:44:20.082Z,9.39
2019-01-18T12:46:48.443Z,9.41
2019-01-18T12:49:16.435Z,9.45
2019-01-18T12:51:44.420Z,9.46
2019-01-18T12:54:12.570Z,9.45
2019-01-18T12:56:40.732Z,9.44
2019-01-18T12:59:09.943Z,9.42
2019-01-18T13:01:38.013Z,9.39
2019-01-18T13:04:08.258Z,9.29
2019-01-18T13:06:36.152Z,9.16
2019-01-18T13:09:06.456Z,9.02
2019-01-18T13:11:34.786Z,8.89
2019-01-18T13:14:03.407Z,8.79
2019-01-18T13:16:42.076Z,8.71
2019-01-18T13:19:23.458Z,8.64
2019-01-18T13:21:51.479Z,8.60
2019-01-18T13:24:19.692Z,8.58
2019-01-18T13:26:47.750Z,8.57
2019-01-18T13:29:15.754Z,8.53
2019-01-18T13:31:44.034Z,8.55
2019-01-18T13:34:12.057Z,8.59
2019-01-18T13:36:40.077Z,8.63
2019-01-18T13:39:10.499Z,8.68
2019-01-18T13:41:38.644Z,8.73
2019-01-18T13:44:06.637Z,8.74
2019-01-18T13:46:34.756Z,8.74
2019-01-18T13:49:03.499Z,8.78
2019-01-18T13:51:31.537Z,8.82
2019-01-18T13:53:59.601Z,8.85
2019-01-18T13:56:27.722Z,8.86
2019-01-18T13:58:55.723Z,8.89
2019-01-18T14:01:23.713Z,8.92
2019-01-18T14:03:51.765Z,8.95
2019-01-18T14:06:19.783Z,8.97
2019-01-18T14:08:47.873Z,9.01
2019-01-18T14:11:17.361Z,9.02
2019-01-18T14:13:45.364Z,9.01
2019-01-18T14:16:13.419Z,9.02
2019-01-18T14:18:41.564Z,9.02
2019-01-18T14:21:10.866Z,9.04
2019-01-18T14:23:38.935Z,9.08
2019-01-18T14:26:06.921Z,9.11
2019-01-18T14:28:35.096Z,9.13
2019-01-18T14:31:03.099Z,9.15
2019-01-18T14:33:31.129Z,9.16
2019-01-18T14:35:59.537Z,9.17
2019-01-18T14:38:27.942Z,9.21
2019-01-18T14:40:56.125Z,9.23
2019-01-18T14:43:25.777Z,9.26
2019-01-18T14:45:53.921Z,9.24
2019-01-18T14:48:21.979Z,9.17
2019-01-18T14:50:50.776Z,9.13
2019-01-18T14:53:19.193Z,9.12
2019-01-18T14:55:47.422Z,9.11
2019-01-18T14:58:15.622Z,9.11
2019-01-18T15:00:43.741Z,9.12
2019-01-18T15:03:13.543Z,9.12
2019-01-18T15:05:41.623Z,9.11
2019-01-18T15:08:09.645Z,9.11
2019-01-18T15:10:37.641Z,9.10
2019-01-18T15:13:13.298Z,9.07
2019-01-18T15:15:41.411Z,9.04
2019-01-18T15:18:10.564Z,8.96
2019-01-18T15:20:39.271Z,8.90
2019-01-18T15:23:07.355Z,8.83
2019-01-18T15:25:35.372Z,8.78
2019-01-18T15:28:03.630Z,8.69
2019-01-18T15:30:31.660Z,8.62
2019-01-18T15:33:01.123Z,8.56
2019-01-18T15:35:32.445Z,8.48
2019-01-18T15:38:00.674Z,8.41
2019-01-18T15:40:30.752Z,8.32
2019-01-18T15:43:01.025Z,8.25
2019-01-18T15:45:29.207Z,8.18
2019-01-18T15:47:57.442Z,8.09
2019-01-18T15:50:29.823Z,8.02
2019-01-18T15:52:58.570Z,7.92
2019-01-18T15:55:27.004Z,7.82
2019-01-18T15:57:55.035Z,7.76
2019-01-18T16:00:30.051Z,7.66
2019-01-18T16:02:58.873Z,7.59
2019-01-18T16:05:27.181Z,7.51
2019-01-18T16:07:55.490Z,7.44
2019-01-18T16:10:25.224Z,7.36
2019-01-18T16:12:54.220Z,7.29
2019-01-18T16:15:49.266Z,7.23
2019-01-18T16:18:18.215Z,7.16
2019-01-18T16:20:47.212Z,7.06
2019-01-18T16:23:15.296Z,7.00
2019-01-18T16:25:43.320Z,6.93
2019-01-18T16:28:12.145Z,6.86
2019-01-18T16:30:41.345Z,6.79
2019-01-18T16:33:10.527Z,6.72
2019-01-18T16:35:39.136Z,6.64
2019-01-18T16:38:09.343Z,6.57
2019-01-18T16:40:37.615Z,6.50
2019-01-18T16:43:19.400Z,6.43
2019-01-18T16:45:47.419Z,6.36
2019-01-18T16:48:15.504Z,6.28
2019-01-18T16:50:43.514Z,6.20
2019-01-18T16:53:13.223Z,6.13
2019-01-18T16:55:41.245Z,6.07
2019-01-18T16:58:09.548Z,6.01
2019-01-18T17:00:39.811Z,5.95
2019-01-18T17:03:08.182Z,5.90
2019-01-18T17:05:36.848Z,5.84
2019-01-18T17:08:05.344Z,5.79
2019-01-18T17:10:35.427Z,5.72
2019-01-18T17:13:04.120Z,5.67
2019-01-18T17:15:33.183Z,5.60
2019-01-18T17:18:01.410Z,5.52
2019-01-18T17:20:32.812Z,5.45
2019-01-18T17:23:00.858Z,5.36
2019-01-18T17:25:28.978Z,5.30
2019-01-18T17:27:57.067Z,5.23
2019-01-18T17:30:25.611Z,5.17
2019-01-18T17:32:53.739Z,5.12
2019-01-18T17:35:44.887Z,5.06
2019-01-18T17:39:01.306Z,4.99
2019-01-18T17:42:42.555Z,4.92
2019-01-18T17:45:57.325Z,4.81
2019-01-18T17:49:18.765Z,4.69
2019-01-18T17:52:50.396Z,4.60
2019-01-18T17:56:37.733Z,4.51
2019-01-18T18:00:20.486Z,4.42
2019-01-18T18:03:36.523Z,4.34
2019-01-18T18:06:41.031Z,4.25
2019-01-18T18:10:08.321Z,4.17
2019-01-18T18:14:02.106Z,4.10
2019-01-18T18:17:27.123Z,4.01
2019-01-18T18:20:31.924Z,3.89
2019-01-18T18:23:37.878Z,3.83
2019-01-18T18:27:22.299Z,3.78
2019-01-18T18:30:33.621Z,3.74
2019-01-18T18:33:34.259Z,3.69
2019-01-18T18:37:08.445Z,3.66
2019-01-18T18:40:49.587Z,3.62
2019-01-18T18:43:51.641Z,3.58
2019-01-18T18:47:07.410Z,3.55
2019-01-18T18:50:27.900Z,3.52
2019-01-18T18:53:38.981Z,3.50
2019-01-18T18:57:12.863Z,3.46
2019-01-18T19:00:36.169Z,3.44
2019-01-18T19:04:14.301Z,3.40
2019-01-18T19:07:26.270Z,3.35
2019-01-18T19:10:56.795Z,3.25
2019-01-18T19:14:38.471Z,3.21
2019-01-18T19:17:56.501Z,3.13
2019-01-18T19:21:28.216Z,3.03
2019-01-18T19:24:42.468Z,2.97
2019-01-18T19:28:22.310Z,2.93
2019-01-18T19:31:45.667Z,2.88
2019-01-18T19:34:37.463Z,2.82
2019-01-18T19:37:40.724Z,2.75
2019-01-18T19:41:21.334Z,2.73
2019-01-18T19:44:58.752Z,2.69
2019-01-18T19:48:30.221Z,2.65
2019-01-18T19:51:53.795Z,2.60
2019-01-18T19:54:39.140Z,2.56
2019-01-18T19:58:15.878Z,2.53
2019-01-18T20:01:22.588Z,2.48
2019-01-18T20:04:50.548Z,2.44
2019-01-18T20:08:14.015Z,2.42
2019-01-18T20:11:54.973Z,2.41
2019-01-18T20:15:49.117Z,2.39
2019-01-18T20:19:24.669Z,2.39
2019-01-18T20:23:10.372Z,2.34
2019-01-18T20:25:58.722Z,2.36
2019-01-18T20:29:15.044Z,2.37
2019-01-18T20:32:52.671Z,2.38
2019-01-18T20:36:35.739Z,2.38
2019-01-18T20:40:32.841Z,2.34
2019-01-18T20:43:34.932Z,2.28
2019-01-18T20:47:10.624Z,2.22
2019-01-18T20:50:24.582Z,2.17
2019-01-18T20:53:31.587Z,2.15
2019-01-18T20:56:37.322Z,2.13
2019-01-18T20:59:40.515Z,2.14
2019-01-18T21:02:40.649Z,2.13
2019-01-18T21:06:15.437Z,2.13
2019-01-18T21:09:16.299Z,2.13
2019-01-18T21:12:38.299Z,2.11
2019-01-18T21:15:18.639Z,2.08
2019-01-18T21:18:11.263Z,2.09
2019-01-18T21:21:52.854Z,2.09
2019-01-18T21:25:08.134Z,2.12
2019-01-18T21:28:42.569Z,2.09
2019-01-18T21:32:11.972Z,2.08
2019-01-18T21:35:23.139Z,2.04
2019-01-18T21:38:46.432Z,2.03
2019-01-18T21:41:58.342Z,2.00
2019-01-18T21:45:54.612Z,2.01
2019-01-18T21:49:14.181Z,1.98
2019-01-18T21:52:34.379Z,1.96
2019-01-18T21:55:58.684Z,1.93
2019-01-18T21:59:32.961Z,1.90
2019-01-18T22:03:10.165Z,1.88
2019-01-18T22:06:24.125Z,1.85
2019-01-18T22:09:14.594Z,1.81
2019-01-18T22:12:47.308Z,1.78
2019-01-18T22:15:53.117Z,1.76
2019-01-18T22:19:22.948Z,1.74
2019-01-18T22:23:06.697Z,1.74
2019-01-18T22:27:02.921Z,1.72
2019-01-18T22:30:25.128Z,1.66
2019-01-18T22:33:47.572Z,1.62
2019-01-18T22:37:06.849Z,1.60
2019-01-18T22:40:12.006Z,1.58
2019-01-18T22:43:35.842Z,1.57
2019-01-18T22:46:46.475Z,1.56
2019-01-18T22:49:39.361Z,1.54
2019-01-18T22:53:23.067Z,1.52
2019-01-18T22:56:35.915Z,1.52
2019-01-18T23:00:11.555Z,1.50
2019-01-18T23:03:42.289Z,1.49
2019-01-18T23:07:15.339Z,1.45
2019-01-18T23:10:31.926Z,1.40
2019-01-18T23:14:09.529Z,1.36
2019-01-18T23:17:37.110Z,1.36
2019-01-18T23:21:08.051Z,1.35
2019-01-18T23:24:27.864Z,1.34
2019-01-18T23:27:46.855Z,1.32
2019-01-18T23:31:10.085Z,1.28
2019-01-18T23:34:20.802Z,1.27
2019-01-18T23:37:23.151Z,1.23
2019-01-18T23:41:06.878Z,1.18
2019-01-18T23:44:43.420Z,1.12
2019-01-18T23:48:11.145Z,1.02
2019-01-18T23:51:36.652Z,0.97
2019-01-18T23:55:02.937Z,0.95
2019-01-18T23:58:52.972Z,0.94
